Arlington, TX

9:25 AM CDT on April 29, 2017 (GMT -0500)
ME0802 | | Change Station

Elev 629 ft 32.66 °N, 97.11 °W | Updated 28 minutes ago

Haze
Haze
78.0 °F
Feels Like 80 °F
N
7.0
Wind Variable Wind from SSW

Today
High -- | Low -- °F
--% Chance of Precip.
Yesterday
High -- | Low -- °F
Precip. -- in
Pressure 29.51 in
Visibility 6.0 miles
Clouds Mostly Cloudy 2400 ft
Mostly Cloudy 2800 ft
Overcast 3500 ft
Heat Index 80 °F
Dew Point 72 °F
Humidity 83%
Rainfall in
Snow Depth Not available.
6:43 AM 8:08 PM
Waxing Crescent, 14% visible
METAR KGKY 291353Z 16018G30KT 6SM HZ BKN024 BKN028 OVC035 26/22 A2954 RMK AO2 PK WND 15030/1348 SLP991 T02610217 $
Pressure 29.51 in
Visibility 6.0 miles
Clouds Mostly Cloudy 2400 ft
Mostly Cloudy 2800 ft
Overcast 3500 ft
Heat Index 80 °F
Dew Point 72 °F
Humidity 83%
Rainfall in
Snow Depth Not available.
6:43 AM 8:08 PM
Waxing Crescent, 14% visible
METAR KGKY 291353Z 16018G30KT 6SM HZ BKN024 BKN028 OVC035 26/22 A2954 RMK AO2 PK WND 15030/1348 SLP991 T02610217 $

Get Severe Weather Alerts

Thanks for signing up!

Be on the lookout for a verification email in your inbox.

You'll start receiving the daily forecast at 8 AM.

×

10-Day Weather Forecast

Almanac

Astronomy

Apr. 29, 2017 Rise Set
Actual Time
Civil Twilight
Nautical Twilight
Astronomical Twilight
Moon
Length of Visible Light
Length of Day
Tomorrow will be .
, % of the Moon is Illuminated

Today's Extremes

State Highs State Lows

Community

WunderPhotos

WunderBlog® & News

Nearby

Air Quality

  Air Quality AQ Index Pollutant
Not available.

Snow Depth

Station Depth Elevation

Earthquake Activity

City Distance Mag. Time & Date
Minimum magnitude displayed is 2.5.

Coastal Water Temperatures

Place Temperature

Stations

Nearby Weather Stations

Station Location Temp. Windchill Dew Point Humidity Wind Precip. Elev Updated Type
                   

Watches & Warnings

There are currently no watches in effect.